sensor_id;sensor_type;location;lat;lon;timestamp;temperature;humidity
49032;DHT22;63443;48.366;10.876;2022-12-15T00:01:58;-1.20;99.90
49032;DHT22;63443;48.366;10.876;2022-12-15T00:04:42;-1.20;99.90
49032;DHT22;63443;48.366;10.876;2022-12-15T00:07:26;-1.20;99.90
49032;DHT22;63443;48.366;10.876;2022-12-15T00:10:11;-1.20;99.90
49032;DHT22;63443;48.366;10.876;2022-12-15T00:12:55;-1.20;99.90
49032;DHT22;63443;48.366;10.876;2022-12-15T00:15:39;-1.20;99.90
49032;DHT22;63443;48.366;10.876;2022-12-15T00:18:23;-1.20;99.90
49032;DHT22;63443;48.366;10.876;2022-12-15T00:21:08;-1.30;99.90
49032;DHT22;63443;48.366;10.876;2022-12-15T00:23:52;-1.20;99.90
49032;DHT22;63443;48.366;10.876;2022-12-15T00:26:36;-1.20;99.90
49032;DHT22;63443;48.366;10.876;2022-12-15T00:29:21;-1.20;99.90
49032;DHT22;63443;48.366;10.876;2022-12-15T00:32:05;-1.20;99.90
49032;DHT22;63443;48.366;10.876;2022-12-15T00:34:49;-1.30;99.90
49032;DHT22;63443;48.366;10.876;2022-12-15T00:37:33;-1.20;99.90
49032;DHT22;63443;48.366;10.876;2022-12-15T00:40:18;-1.20;99.90
49032;DHT22;63443;48.366;10.876;2022-12-15T00:42:43;-1.20;99.90
49032;DHT22;63443;48.366;10.876;2022-12-15T00:45:09;-1.40;99.90
49032;DHT22;63443;48.366;10.876;2022-12-15T00:47:34;-1.30;99.90
49032;DHT22;63443;48.366;10.876;2022-12-15T00:50:00;-1.40;99.90
49032;DHT22;63443;48.366;10.876;2022-12-15T00:52:44;-1.50;99.90
49032;DHT22;63443;48.366;10.876;2022-12-15T00:55:28;-1.50;99.90
49032;DHT22;63443;48.366;10.876;2022-12-15T00:58:13;-1.60;99.90
49032;DHT22;63443;48.366;10.876;2022-12-15T01:00:57;-1.70;99.90
49032;DHT22;63443;48.366;10.876;2022-12-15T01:03:41;-1.60;99.90
49032;DHT22;63443;48.366;10.876;2022-12-15T01:06:25;-1.70;99.90
49032;DHT22;63443;48.366;10.876;2022-12-15T01:09:10;-1.80;99.90
49032;DHT22;63443;48.366;10.876;2022-12-15T01:11:55;-1.80;99.90
49032;DHT22;63443;48.366;10.876;2022-12-15T01:14:39;-1.80;99.90
49032;DHT22;63443;48.366;10.876;2022-12-15T01:17:23;-1.70;99.90
49032;DHT22;63443;48.366;10.876;2022-12-15T01:20:07;-1.70;99.90
49032;DHT22;63443;48.366;10.876;2022-12-15T01:22:43;-1.70;99.90
49032;DHT22;63443;48.366;10.876;2022-12-15T01:25:09;-1.70;99.90
49032;DHT22;63443;48.366;10.876;2022-12-15T01:27:35;-1.60;99.90
49032;DHT22;63443;48.366;10.876;2022-12-15T01:30:00;-1.60;99.90
49032;DHT22;63443;48.366;10.876;2022-12-15T01:32:26;-1.60;99.90
49032;DHT22;63443;48.366;10.876;2022-12-15T01:34:52;-1.60;99.90
49032;DHT22;63443;48.366;10.876;2022-12-15T01:37:17;-1.50;99.90
49032;DHT22;63443;48.366;10.876;2022-12-15T01:39:43;-1.40;99.90
49032;DHT22;63443;48.366;10.876;2022-12-15T01:42:27;-1.50;99.90
49032;DHT22;63443;48.366;10.876;2022-12-15T01:44:53;-1.60;99.90
49032;DHT22;63443;48.366;10.876;2022-12-15T01:47:38;-1.50;99.90
49032;DHT22;63443;48.366;10.876;2022-12-15T01:50:03;-1.50;99.90
49032;DHT22;63443;48.366;10.876;2022-12-15T01:52:29;-1.50;99.90
49032;DHT22;63443;48.366;10.876;2022-12-15T01:54:55;-1.50;99.90
49032;DHT22;63443;48.366;10.876;2022-12-15T01:57:24;-1.50;99.90
49032;DHT22;63443;48.366;10.876;2022-12-15T01:59:55;-1.50;99.90
49032;DHT22;63443;48.366;10.876;2022-12-15T02:02:22;-1.50;99.90
49032;DHT22;63443;48.366;10.876;2022-12-15T02:04:49;-1.50;99.90
49032;DHT22;63443;48.366;10.876;2022-12-15T02:07:16;-1.50;99.90
49032;DHT22;63443;48.366;10.876;2022-12-15T02:09:42;-1.50;99.90
49032;DHT22;63443;48.366;10.876;2022-12-15T02:20:12;-1.60;99.90
49032;DHT22;63443;48.366;10.876;2022-12-15T02:22:50;-1.70;99.90
49032;DHT22;63443;48.366;10.876;2022-12-15T02:25:22;-1.80;99.90
49032;DHT22;63443;48.366;10.876;2022-12-15T02:27:55;-1.80;99.90
49032;DHT22;63443;48.366;10.876;2022-12-15T02:33:10;-1.70;99.90
49032;DHT22;63443;48.366;10.876;2022-12-15T02:38:07;-1.80;99.90
49032;DHT22;63443;48.366;10.876;2022-12-15T02:40:32;-1.70;99.90
49032;DHT22;63443;48.366;10.876;2022-12-15T02:42:57;-1.70;99.90
49032;DHT22;63443;48.366;10.876;2022-12-15T02:45:30;-1.70;99.90
49032;DHT22;63443;48.366;10.876;2022-12-15T02:50:59;-1.80;99.90
49032;DHT22;63443;48.366;10.876;2022-12-15T03:01:12;-1.70;99.90
49032;DHT22;63443;48.366;10.876;2022-12-15T03:03:38;-1.70;99.90
49032;DHT22;63443;48.366;10.876;2022-12-15T03:06:04;-1.70;99.90
49032;DHT22;63443;48.366;10.876;2022-12-15T03:08:29;-1.70;99.90
49032;DHT22;63443;48.366;10.876;2022-12-15T03:10:55;-1.80;99.90
49032;DHT22;63443;48.366;10.876;2022-12-15T03:13:21;-1.70;99.90
49032;DHT22;63443;48.366;10.876;2022-12-15T03:15:47;-1.70;99.90
49032;DHT22;63443;48.366;10.876;2022-12-15T03:18:12;-1.80;99.90
49032;DHT22;63443;48.366;10.876;2022-12-15T03:20:38;-1.80;99.90
49032;DHT22;63443;48.366;10.876;2022-12-15T03:23:03;-1.80;99.90
49032;DHT22;63443;48.366;10.876;2022-12-15T03:25:29;-1.80;99.90
49032;DHT22;63443;48.366;10.876;2022-12-15T03:27:54;-1.70;99.90
49032;DHT22;63443;48.366;10.876;2022-12-15T03:30:20;-1.80;99.90
49032;DHT22;63443;48.366;10.876;2022-12-15T03:32:45;-1.80;99.90
49032;DHT22;63443;48.366;10.876;2022-12-15T03:35:11;-2.00;99.90
49032;DHT22;63443;48.366;10.876;2022-12-15T03:37:37;-1.90;99.90
49032;DHT22;63443;48.366;10.876;2022-12-15T03:40:03;-2.00;99.90
49032;DHT22;63443;48.366;10.876;2022-12-15T03:42:28;-2.10;99.90
49032;DHT22;63443;48.366;10.876;2022-12-15T03:47:42;-2.00;99.90
49032;DHT22;63443;48.366;10.876;2022-12-15T03:50:08;-2.10;99.90
49032;DHT22;63443;48.366;10.876;2022-12-15T03:52:34;-2.10;99.90
49032;DHT22;63443;48.366;10.876;2022-12-15T03:55:00;-2.00;99.90
49032;DHT22;63443;48.366;10.876;2022-12-15T03:57:26;-2.00;99.90
49032;DHT22;63443;48.366;10.876;2022-12-15T03:59:51;-2.00;99.90
49032;DHT22;63443;48.366;10.876;2022-12-15T04:02:16;-2.00;99.90
49032;DHT22;63443;48.366;10.876;2022-12-15T04:04:42;-2.00;99.90
49032;DHT22;63443;48.366;10.876;2022-12-15T04:07:07;-2.00;99.90
49032;DHT22;63443;48.366;10.876;2022-12-15T04:09:34;-2.00;99.90
49032;DHT22;63443;48.366;10.876;2022-12-15T04:11:59;-1.90;99.90
49032;DHT22;63443;48.366;10.876;2022-12-15T04:14:30;-1.90;99.90
49032;DHT22;63443;48.366;10.876;2022-12-15T04:16:56;-2.00;99.90
49032;DHT22;63443;48.366;10.876;2022-12-15T04:19:21;-2.00;99.90
49032;DHT22;63443;48.366;10.876;2022-12-15T04:22:05;-2.00;99.90
49032;DHT22;63443;48.366;10.876;2022-12-15T04:24:31;-1.90;99.90
49032;DHT22;63443;48.366;10.876;2022-12-15T04:27:15;-1.90;99.90
49032;DHT22;63443;48.366;10.876;2022-12-15T04:29:59;-2.00;99.90
49032;DHT22;63443;48.366;10.876;2022-12-15T04:32:43;-1.90;99.90
49032;DHT22;63443;48.366;10.876;2022-12-15T04:35:27;-1.90;99.90
49032;DHT22;63443;48.366;10.876;2022-12-15T04:38:12;-1.90;99.90
49032;DHT22;63443;48.366;10.876;2022-12-15T04:40:56;-2.00;99.90
49032;DHT22;63443;48.366;10.876;2022-12-15T04:43:40;-2.00;99.90
49032;DHT22;63443;48.366;10.876;2022-12-15T04:46:24;-2.00;99.90
49032;DHT22;63443;48.366;10.876;2022-12-15T04:49:08;-2.00;99.90
49032;DHT22;63443;48.366;10.876;2022-12-15T04:51:53;-1.90;99.90
49032;DHT22;63443;48.366;10.876;2022-12-15T04:54:37;-1.80;99.90
49032;DHT22;63443;48.366;10.876;2022-12-15T04:57:21;-1.80;99.90
49032;DHT22;63443;48.366;10.876;2022-12-15T05:00:05;-1.80;99.90
49032;DHT22;63443;48.366;10.876;2022-12-15T05:02:50;-1.90;99.90
49032;DHT22;63443;48.366;10.876;2022-12-15T05:05:34;-1.90;99.90
49032;DHT22;63443;48.366;10.876;2022-12-15T05:08:18;-1.90;99.90
49032;DHT22;63443;48.366;10.876;2022-12-15T05:11:02;-2.00;99.90
49032;DHT22;63443;48.366;10.876;2022-12-15T05:13:46;-1.90;99.90
49032;DHT22;63443;48.366;10.876;2022-12-15T05:16:31;-1.80;99.90
49032;DHT22;63443;48.366;10.876;2022-12-15T05:19:15;-1.90;99.90
49032;DHT22;63443;48.366;10.876;2022-12-15T05:21:59;-1.90;99.90
49032;DHT22;63443;48.366;10.876;2022-12-15T05:24:43;-2.00;99.90
49032;DHT22;63443;48.366;10.876;2022-12-15T05:27:27;-1.90;99.90
49032;DHT22;63443;48.366;10.876;2022-12-15T05:30:12;-1.90;99.90
49032;DHT22;63443;48.366;10.876;2022-12-15T05:32:56;-1.90;99.90
49032;DHT22;63443;48.366;10.876;2022-12-15T05:35:21;-1.90;99.90
49032;DHT22;63443;48.366;10.876;2022-12-15T05:37:47;-1.80;99.90
49032;DHT22;63443;48.366;10.876;2022-12-15T05:40:12;-1.90;99.90
49032;DHT22;63443;48.366;10.876;2022-12-15T05:42:38;-1.90;99.90
49032;DHT22;63443;48.366;10.876;2022-12-15T05:45:03;-1.90;99.90
49032;DHT22;63443;48.366;10.876;2022-12-15T05:47:29;-1.90;99.90
49032;DHT22;63443;48.366;10.876;2022-12-15T05:49:55;-1.90;99.90
49032;DHT22;63443;48.366;10.876;2022-12-15T05:52:20;-1.90;99.90
49032;DHT22;63443;48.366;10.876;2022-12-15T05:54:46;-1.90;99.90
49032;DHT22;63443;48.366;10.876;2022-12-15T05:57:11;-1.90;99.90
49032;DHT22;63443;48.366;10.876;2022-12-15T05:59:37;-1.90;99.90
49032;DHT22;63443;48.366;10.876;2022-12-15T06:02:02;-1.90;99.90
49032;DHT22;63443;48.366;10.876;2022-12-15T06:04:28;-1.90;99.90
49032;DHT22;63443;48.366;10.876;2022-12-15T06:06:53;-1.90;99.90
49032;DHT22;63443;48.366;10.876;2022-12-15T06:09:19;-1.90;99.90
49032;DHT22;63443;48.366;10.876;2022-12-15T06:11:44;-1.90;99.90
49032;DHT22;63443;48.366;10.876;2022-12-15T06:14:10;-1.90;99.90
49032;DHT22;63443;48.366;10.876;2022-12-15T06:16:35;-1.90;99.90
49032;DHT22;63443;48.366;10.876;2022-12-15T06:19:01;-1.90;99.90
49032;DHT22;63443;48.366;10.876;2022-12-15T06:21:28;-1.90;99.90
49032;DHT22;63443;48.366;10.876;2022-12-15T06:23:55;-1.90;99.90
49032;DHT22;63443;48.366;10.876;2022-12-15T06:26:22;-1.90;99.90
49032;DHT22;63443;48.366;10.876;2022-12-15T06:28:48;-1.90;99.90
49032;DHT22;63443;48.366;10.876;2022-12-15T06:31:14;-2.00;99.90
49032;DHT22;63443;48.366;10.876;2022-12-15T06:33:40;-2.00;99.90
49032;DHT22;63443;48.366;10.876;2022-12-15T06:36:06;-1.90;99.90
49032;DHT22;63443;48.366;10.876;2022-12-15T06:38:32;-1.90;99.90
49032;DHT22;63443;48.366;10.876;2022-12-15T06:40:58;-1.90;99.90
49032;DHT22;63443;48.366;10.876;2022-12-15T06:43:25;-2.20;99.90
49032;DHT22;63443;48.366;10.876;2022-12-15T06:45:51;-2.10;99.90
49032;DHT22;63443;48.366;10.876;2022-12-15T06:48:17;-2.10;99.90
49032;DHT22;63443;48.366;10.876;2022-12-15T06:50:43;-2.10;99.90
49032;DHT22;63443;48.366;10.876;2022-12-15T06:53:10;-2.10;99.90
49032;DHT22;63443;48.366;10.876;2022-12-15T06:55:35;-2.10;99.90
49032;DHT22;63443;48.366;10.876;2022-12-15T06:58:01;-2.10;99.90
49032;DHT22;63443;48.366;10.876;2022-12-15T07:00:26;-2.00;99.90
49032;DHT22;63443;48.366;10.876;2022-12-15T07:02:52;-2.10;99.90
49032;DHT22;63443;48.366;10.876;2022-12-15T07:05:18;-2.10;99.90
49032;DHT22;63443;48.366;10.876;2022-12-15T07:07:43;-2.00;99.90
49032;DHT22;63443;48.366;10.876;2022-12-15T07:10:09;-1.90;99.90
49032;DHT22;63443;48.366;10.876;2022-12-15T07:12:35;-1.90;99.90
49032;DHT22;63443;48.366;10.876;2022-12-15T07:15:01;-2.00;99.90
49032;DHT22;63443;48.366;10.876;2022-12-15T07:17:27;-2.00;99.90
49032;DHT22;63443;48.366;10.876;2022-12-15T07:19:52;-2.10;99.90
49032;DHT22;63443;48.366;10.876;2022-12-15T07:22:19;-2.10;99.90
49032;DHT22;63443;48.366;10.876;2022-12-15T07:24:46;-2.10;99.90
49032;DHT22;63443;48.366;10.876;2022-12-15T07:27:11;-2.10;99.90
49032;DHT22;63443;48.366;10.876;2022-12-15T07:29:37;-2.10;99.90
49032;DHT22;63443;48.366;10.876;2022-12-15T07:32:02;-2.10;99.90
49032;DHT22;63443;48.366;10.876;2022-12-15T07:34:28;-2.10;99.90
49032;DHT22;63443;48.366;10.876;2022-12-15T07:36:53;-2.20;99.90
49032;DHT22;63443;48.366;10.876;2022-12-15T07:39:19;-2.10;99.90
49032;DHT22;63443;48.366;10.876;2022-12-15T07:41:45;-2.10;99.90
49032;DHT22;63443;48.366;10.876;2022-12-15T07:44:11;-2.10;99.90
49032;DHT22;63443;48.366;10.876;2022-12-15T07:46:36;-2.00;99.90
49032;DHT22;63443;48.366;10.876;2022-12-15T07:49:02;-2.00;99.90
49032;DHT22;63443;48.366;10.876;2022-12-15T07:51:27;-2.00;99.90
49032;DHT22;63443;48.366;10.876;2022-12-15T07:53:53;-2.00;99.90
49032;DHT22;63443;48.366;10.876;2022-12-15T07:56:18;-2.00;99.90
49032;DHT22;63443;48.366;10.876;2022-12-15T07:58:44;-2.00;99.90
49032;DHT22;63443;48.366;10.876;2022-12-15T08:01:10;-1.90;99.90
49032;DHT22;63443;48.366;10.876;2022-12-15T08:03:36;-1.70;99.90
49032;DHT22;63443;48.366;10.876;2022-12-15T08:06:06;-1.70;99.90
49032;DHT22;63443;48.366;10.876;2022-12-15T08:08:32;-1.70;99.90
49032;DHT22;63443;48.366;10.876;2022-12-15T08:10:57;-1.60;99.90
49032;DHT22;63443;48.366;10.876;2022-12-15T08:13:23;-1.50;99.90
49032;DHT22;63443;48.366;10.876;2022-12-15T08:15:52;-1.50;99.90
49032;DHT22;63443;48.366;10.876;2022-12-15T08:18:18;-1.50;99.90
49032;DHT22;63443;48.366;10.876;2022-12-15T08:20:43;-1.60;99.90
49032;DHT22;63443;48.366;10.876;2022-12-15T08:23:09;-1.50;99.90
49032;DHT22;63443;48.366;10.876;2022-12-15T08:25:34;-1.70;99.90
49032;DHT22;63443;48.366;10.876;2022-12-15T08:28:00;-1.70;99.90
49032;DHT22;63443;48.366;10.876;2022-12-15T08:30:26;-1.60;99.90
49032;DHT22;63443;48.366;10.876;2022-12-15T08:32:51;-1.50;99.90
49032;DHT22;63443;48.366;10.876;2022-12-15T08:35:17;-1.30;99.90
49032;DHT22;63443;48.366;10.876;2022-12-15T08:37:42;-1.40;99.90
49032;DHT22;63443;48.366;10.876;2022-12-15T08:40:08;-1.50;99.90
49032;DHT22;63443;48.366;10.876;2022-12-15T08:42:34;-1.50;99.90
49032;DHT22;63443;48.366;10.876;2022-12-15T08:44:59;-1.40;99.90
49032;DHT22;63443;48.366;10.876;2022-12-15T08:47:25;-1.40;99.90
49032;DHT22;63443;48.366;10.876;2022-12-15T08:49:50;-1.20;99.90
49032;DHT22;63443;48.366;10.876;2022-12-15T08:52:19;-1.00;99.90
49032;DHT22;63443;48.366;10.876;2022-12-15T08:54:44;-0.90;99.90
49032;DHT22;63443;48.366;10.876;2022-12-15T08:57:10;-1.00;99.90
49032;DHT22;63443;48.366;10.876;2022-12-15T08:59:35;-0.80;99.90
49032;DHT22;63443;48.366;10.876;2022-12-15T09:02:01;-0.70;99.90
49032;DHT22;63443;48.366;10.876;2022-12-15T09:04:26;-0.70;99.90
49032;DHT22;63443;48.366;10.876;2022-12-15T09:06:52;-0.50;99.90
49032;DHT22;63443;48.366;10.876;2022-12-15T09:09:17;-0.60;99.90
49032;DHT22;63443;48.366;10.876;2022-12-15T09:11:43;-0.70;99.90
49032;DHT22;63443;48.366;10.876;2022-12-15T09:14:09;-0.50;99.90
49032;DHT22;63443;48.366;10.876;2022-12-15T09:16:34;-0.30;99.90
49032;DHT22;63443;48.366;10.876;2022-12-15T09:19:01;-0.20;99.90
49032;DHT22;63443;48.366;10.876;2022-12-15T09:21:27;-0.10;99.90
49032;DHT22;63443;48.366;10.876;2022-12-15T09:23:54;0.10;99.90
49032;DHT22;63443;48.366;10.876;2022-12-15T09:26:20;-0.10;99.90
49032;DHT22;63443;48.366;10.876;2022-12-15T09:28:46;0.00;99.90
49032;DHT22;63443;48.366;10.876;2022-12-15T09:31:13;-0.10;99.90
49032;DHT22;63443;48.366;10.876;2022-12-15T09:33:39;-0.20;99.90
49032;DHT22;63443;48.366;10.876;2022-12-15T09:36:05;-0.30;99.90
49032;DHT22;63443;48.366;10.876;2022-12-15T09:38:34;-0.10;99.90
49032;DHT22;63443;48.366;10.876;2022-12-15T09:43:38;-0.50;99.90
49032;DHT22;63443;48.366;10.876;2022-12-15T09:46:07;-0.30;99.90
49032;DHT22;63443;48.366;10.876;2022-12-15T09:48:37;-0.10;99.90
49032;DHT22;63443;48.366;10.876;2022-12-15T09:51:04;-0.10;99.90
49032;DHT22;63443;48.366;10.876;2022-12-15T09:53:32;-0.10;99.90
49032;DHT22;63443;48.366;10.876;2022-12-15T09:56:01;-0.10;99.90
49032;DHT22;63443;48.366;10.876;2022-12-15T10:03:38;0.00;99.90
49032;DHT22;63443;48.366;10.876;2022-12-15T10:06:09;0.00;99.90
49032;DHT22;63443;48.366;10.876;2022-12-15T10:08:57;0.00;99.90
49032;DHT22;63443;48.366;10.876;2022-12-15T10:14:20;0.00;99.90
49032;DHT22;63443;48.366;10.876;2022-12-15T10:19:15;-0.10;99.90
49032;DHT22;63443;48.366;10.876;2022-12-15T10:21:42;0.00;99.90
49032;DHT22;63443;48.366;10.876;2022-12-15T10:24:11;0.10;99.90
49032;DHT22;63443;48.366;10.876;2022-12-15T10:26:38;0.10;99.90
49032;DHT22;63443;48.366;10.876;2022-12-15T10:29:10;-0.10;99.90
49032;DHT22;63443;48.366;10.876;2022-12-15T10:31:43;-0.20;99.90
49032;DHT22;63443;48.366;10.876;2022-12-15T10:34:16;-0.30;99.90
49032;DHT22;63443;48.366;10.876;2022-12-15T10:36:48;-0.20;99.90
49032;DHT22;63443;48.366;10.876;2022-12-15T10:39:14;-0.20;99.90
49032;DHT22;63443;48.366;10.876;2022-12-15T10:41:40;-0.10;99.90
49032;DHT22;63443;48.366;10.876;2022-12-15T10:44:10;-0.20;99.90
49032;DHT22;63443;48.366;10.876;2022-12-15T10:46:45;-0.10;99.90
49032;DHT22;63443;48.366;10.876;2022-12-15T10:51:47;0.30;99.90
49032;DHT22;63443;48.366;10.876;2022-12-15T10:54:15;-0.20;99.90
49032;DHT22;63443;48.366;10.876;2022-12-15T10:56:56;0.10;99.90
49032;DHT22;63443;48.366;10.876;2022-12-15T11:01:47;0.30;99.90
49032;DHT22;63443;48.366;10.876;2022-12-15T11:04:31;0.30;99.90
49032;DHT22;63443;48.366;10.876;2022-12-15T11:07:00;0.20;99.90
49032;DHT22;63443;48.366;10.876;2022-12-15T11:09:30;0.50;99.90
49032;DHT22;63443;48.366;10.876;2022-12-15T11:11:57;0.60;99.90
49032;DHT22;63443;48.366;10.876;2022-12-15T11:17:07;0.30;99.90
49032;DHT22;63443;48.366;10.876;2022-12-15T11:19:35;0.30;99.90
49032;DHT22;63443;48.366;10.876;2022-12-15T11:22:07;0.50;99.90
49032;DHT22;63443;48.366;10.876;2022-12-15T11:24:37;0.50;99.90
49032;DHT22;63443;48.366;10.876;2022-12-15T11:27:16;0.50;99.90
49032;DHT22;63443;48.366;10.876;2022-12-15T11:29:45;0.40;99.90
49032;DHT22;63443;48.366;10.876;2022-12-15T11:32:13;0.00;99.90
49032;DHT22;63443;48.366;10.876;2022-12-15T11:34:45;0.20;99.90
49032;DHT22;63443;48.366;10.876;2022-12-15T11:42:21;0.00;99.90
49032;DHT22;63443;48.366;10.876;2022-12-15T11:45:02;0.10;99.90
49032;DHT22;63443;48.366;10.876;2022-12-15T11:55:06;-0.10;99.90
49032;DHT22;63443;48.366;10.876;2022-12-15T12:00:20;0.20;99.90
49032;DHT22;63443;48.366;10.876;2022-12-15T12:10:38;0.00;99.90
49032;DHT22;63443;48.366;10.876;2022-12-15T12:13:12;-0.20;99.90
49032;DHT22;63443;48.366;10.876;2022-12-15T12:16:05;-0.10;99.90
49032;DHT22;63443;48.366;10.876;2022-12-15T12:18:26;0.10;99.90
49032;DHT22;63443;48.366;10.876;2022-12-15T12:20:56;0.00;99.90
49032;DHT22;63443;48.366;10.876;2022-12-15T12:23:31;0.00;99.90
49032;DHT22;63443;48.366;10.876;2022-12-15T12:28:29;-0.30;99.90
49032;DHT22;63443;48.366;10.876;2022-12-15T12:30:56;-0.20;99.90
49032;DHT22;63443;48.366;10.876;2022-12-15T12:35:53;-0.50;99.90
49032;DHT22;63443;48.366;10.876;2022-12-15T12:38:23;-0.40;99.90
49032;DHT22;63443;48.366;10.876;2022-12-15T12:41:00;-0.20;99.90
49032;DHT22;63443;48.366;10.876;2022-12-15T12:45:56;-0.30;99.90
49032;DHT22;63443;48.366;10.876;2022-12-15T12:48:28;-0.40;99.90
49032;DHT22;63443;48.366;10.876;2022-12-15T12:53:40;-0.60;99.90
49032;DHT22;63443;48.366;10.876;2022-12-15T12:56:06;-0.50;99.90
49032;DHT22;63443;48.366;10.876;2022-12-15T12:58:33;-0.30;99.90
49032;DHT22;63443;48.366;10.876;2022-12-15T13:03:43;-0.20;99.90
49032;DHT22;63443;48.366;10.876;2022-12-15T13:06:55;-0.20;99.90
49032;DHT22;63443;48.366;10.876;2022-12-15T13:16:48;-0.20;99.90
49032;DHT22;63443;48.366;10.876;2022-12-15T13:19:16;-0.40;99.90
49032;DHT22;63443;48.366;10.876;2022-12-15T13:22:01;-0.30;99.90
49032;DHT22;63443;48.366;10.876;2022-12-15T13:27:09;-0.10;99.90
49032;DHT22;63443;48.366;10.876;2022-12-15T13:29:36;-0.30;99.90
49032;DHT22;63443;48.366;10.876;2022-12-15T13:32:33;-0.20;99.90
49032;DHT22;63443;48.366;10.876;2022-12-15T13:35:14;-0.20;99.90
49032;DHT22;63443;48.366;10.876;2022-12-15T13:42:56;-0.20;99.90
49032;DHT22;63443;48.366;10.876;2022-12-15T13:47:58;-0.20;99.90
49032;DHT22;63443;48.366;10.876;2022-12-15T13:50:29;-0.30;99.90
49032;DHT22;63443;48.366;10.876;2022-12-15T13:52:55;-0.10;99.90
49032;DHT22;63443;48.366;10.876;2022-12-15T13:55:22;-0.20;99.90
49032;DHT22;63443;48.366;10.876;2022-12-15T13:57:50;-0.10;99.90
49032;DHT22;63443;48.366;10.876;2022-12-15T14:00:18;-0.20;99.90
49032;DHT22;63443;48.366;10.876;2022-12-15T14:02:44;-0.20;99.90
49032;DHT22;63443;48.366;10.876;2022-12-15T14:07:35;-0.10;99.90
49032;DHT22;63443;48.366;10.876;2022-12-15T14:10:00;-0.20;99.90
49032;DHT22;63443;48.366;10.876;2022-12-15T14:12:28;-0.30;99.90
49032;DHT22;63443;48.366;10.876;2022-12-15T14:14:53;-0.20;99.90
49032;DHT22;63443;48.366;10.876;2022-12-15T14:17:19;-0.50;99.90
49032;DHT22;63443;48.366;10.876;2022-12-15T14:19:45;-0.40;99.90
49032;DHT22;63443;48.366;10.876;2022-12-15T14:22:22;-0.30;99.90
49032;DHT22;63443;48.366;10.876;2022-12-15T14:24:48;-0.30;99.90
49032;DHT22;63443;48.366;10.876;2022-12-15T14:27:21;-0.50;99.90
49032;DHT22;63443;48.366;10.876;2022-12-15T14:29:47;-0.50;99.90
49032;DHT22;63443;48.366;10.876;2022-12-15T14:32:12;-0.70;99.90
49032;DHT22;63443;48.366;10.876;2022-12-15T14:34:38;-0.70;99.90
49032;DHT22;63443;48.366;10.876;2022-12-15T14:37:06;-0.60;99.90
49032;DHT22;63443;48.366;10.876;2022-12-15T14:39:38;-0.70;99.90
49032;DHT22;63443;48.366;10.876;2022-12-15T14:42:04;-0.60;99.90
49032;DHT22;63443;48.366;10.876;2022-12-15T14:46:55;-0.70;99.90
49032;DHT22;63443;48.366;10.876;2022-12-15T14:49:23;-0.60;99.90
49032;DHT22;63443;48.366;10.876;2022-12-15T14:51:50;-0.80;99.90
49032;DHT22;63443;48.366;10.876;2022-12-15T14:54:30;-0.80;99.90
49032;DHT22;63443;48.366;10.876;2022-12-15T14:56:59;-0.70;99.90
49032;DHT22;63443;48.366;10.876;2022-12-15T14:59:28;-0.80;99.90
49032;DHT22;63443;48.366;10.876;2022-12-15T15:02:01;-0.90;99.90
49032;DHT22;63443;48.366;10.876;2022-12-15T15:04:31;-0.90;99.90
49032;DHT22;63443;48.366;10.876;2022-12-15T15:07:06;-0.90;99.90
49032;DHT22;63443;48.366;10.876;2022-12-15T15:09:39;-0.80;99.90
49032;DHT22;63443;48.366;10.876;2022-12-15T15:12:06;-0.90;99.90
49032;DHT22;63443;48.366;10.876;2022-12-15T15:14:40;-0.90;99.90
49032;DHT22;63443;48.366;10.876;2022-12-15T15:17:15;-0.90;99.90
49032;DHT22;63443;48.366;10.876;2022-12-15T15:19:45;-1.00;99.90
49032;DHT22;63443;48.366;10.876;2022-12-15T15:22:23;-1.10;99.90
49032;DHT22;63443;48.366;10.876;2022-12-15T15:24:50;-1.10;99.90
49032;DHT22;63443;48.366;10.876;2022-12-15T15:27:25;-0.90;99.90
49032;DHT22;63443;48.366;10.876;2022-12-15T15:29:51;-1.00;99.90
49032;DHT22;63443;48.366;10.876;2022-12-15T15:32:20;-1.00;99.90
49032;DHT22;63443;48.366;10.876;2022-12-15T15:34:46;-1.00;99.90
49032;DHT22;63443;48.366;10.876;2022-12-15T15:37:19;-0.80;99.90
49032;DHT22;63443;48.366;10.876;2022-12-15T15:40:05;-0.80;99.90
49032;DHT22;63443;48.366;10.876;2022-12-15T15:42:30;-0.80;99.90
49032;DHT22;63443;48.366;10.876;2022-12-15T15:44:56;-0.80;99.90
49032;DHT22;63443;48.366;10.876;2022-12-15T15:47:24;-0.80;99.90
49032;DHT22;63443;48.366;10.876;2022-12-15T15:49:51;-0.80;99.90
49032;DHT22;63443;48.366;10.876;2022-12-15T15:52:16;-0.90;99.90
49032;DHT22;63443;48.366;10.876;2022-12-15T15:54:42;-1.00;99.90
49032;DHT22;63443;48.366;10.876;2022-12-15T15:57:14;-1.00;99.90
49032;DHT22;63443;48.366;10.876;2022-12-15T15:59:40;-1.00;99.90
49032;DHT22;63443;48.366;10.876;2022-12-15T16:02:07;-1.00;99.90
49032;DHT22;63443;48.366;10.876;2022-12-15T16:04:34;-0.90;99.90
49032;DHT22;63443;48.366;10.876;2022-12-15T16:07:02;-1.00;99.90
49032;DHT22;63443;48.366;10.876;2022-12-15T16:09:28;-1.10;99.90
49032;DHT22;63443;48.366;10.876;2022-12-15T16:11:54;-1.10;99.90
49032;DHT22;63443;48.366;10.876;2022-12-15T16:14:19;-1.10;99.90
49032;DHT22;63443;48.366;10.876;2022-12-15T16:16:45;-1.10;99.90
49032;DHT22;63443;48.366;10.876;2022-12-15T16:19:11;-1.20;99.90
49032;DHT22;63443;48.366;10.876;2022-12-15T16:21:36;-1.00;99.90
49032;DHT22;63443;48.366;10.876;2022-12-15T16:24:04;-1.10;99.90
49032;DHT22;63443;48.366;10.876;2022-12-15T16:26:32;-1.00;99.90
49032;DHT22;63443;48.366;10.876;2022-12-15T16:28:57;-0.90;99.90
49032;DHT22;63443;48.366;10.876;2022-12-15T16:31:26;-1.00;99.90
49032;DHT22;63443;48.366;10.876;2022-12-15T16:33:52;-0.90;99.90
49032;DHT22;63443;48.366;10.876;2022-12-15T16:36:17;-0.90;99.90
49032;DHT22;63443;48.366;10.876;2022-12-15T16:38:43;-0.90;99.90
49032;DHT22;63443;48.366;10.876;2022-12-15T16:41:10;-0.90;99.90
49032;DHT22;63443;48.366;10.876;2022-12-15T16:43:37;-0.90;99.90
49032;DHT22;63443;48.366;10.876;2022-12-15T16:46:02;-1.00;99.90
49032;DHT22;63443;48.366;10.876;2022-12-15T16:48:27;-1.00;99.90
49032;DHT22;63443;48.366;10.876;2022-12-15T16:50:54;-1.10;99.90
49032;DHT22;63443;48.366;10.876;2022-12-15T16:53:24;-1.20;99.90
49032;DHT22;63443;48.366;10.876;2022-12-15T16:55:51;-1.10;99.90
49032;DHT22;63443;48.366;10.876;2022-12-15T16:58:18;-1.10;99.90
49032;DHT22;63443;48.366;10.876;2022-12-15T17:00:43;-1.10;99.90
49032;DHT22;63443;48.366;10.876;2022-12-15T17:03:12;-1.00;99.90
49032;DHT22;63443;48.366;10.876;2022-12-15T17:05:38;-1.00;99.90
49032;DHT22;63443;48.366;10.876;2022-12-15T17:08:05;-1.10;99.90
49032;DHT22;63443;48.366;10.876;2022-12-15T17:10:31;-1.10;99.90
49032;DHT22;63443;48.366;10.876;2022-12-15T17:12:58;-1.10;99.90
49032;DHT22;63443;48.366;10.876;2022-12-15T17:15:27;-1.20;99.90
49032;DHT22;63443;48.366;10.876;2022-12-15T17:17:52;-1.20;99.90
49032;DHT22;63443;48.366;10.876;2022-12-15T17:20:22;-1.10;99.90
49032;DHT22;63443;48.366;10.876;2022-12-15T17:22:49;-1.10;99.90